KLEW/LEW METAR and TAF weather

Enter ICAO airport designator
Station Type Date Time Source
KLEW METAR 2020/08/12 16:56 UTC NOAA

KLEW 121656Z AUTO 32009KT 10SM BKN043 29/19 A2999 RMK AO2 SLP160 T02940194


Station Type Date Time Source
KLEW Decoded METAR 2020/08/12 16:56 UTC NOAA

Auburn-Lewiston, ME, United States (KLEW) 44-03N 070-17W
Aug 12, 2020 - 12:56 PM EDT / 2020.08.12 1656 UTC
Wind: from the NW (320 degrees) at 10 MPH (9 KT):0
Visibility: 10 mile(s):0
Sky conditions: mostly cloudy
Temperature: 84.9 F (29.4 C)
Dew Point: 66.9 F (19.4 C)
Relative Humidity: 54%
Pressure (altimeter): 29.99 in. Hg (1015 hPa)
ob: KLEW 121656Z AUTO 32009KT 10SM BKN043 29/19 A2999 RMK AO2 SLP160 T02940194
cycle: 17

Station Type Date Time Source
KLEW TAF UTC NOAA

Error!

Example: see airport list